Terminal Aerodrome Forecast
Issued by NWS

Home | Current Version | Previous Version | Graphics & Text | Print | Product List | Glossary On
Versions: 1 2 3 4 5 6 7 8 9 10 11 12
000
FTUS43 KMPX 101700
TAFAXN
TAF
KAXN 101737Z 1018/1118 16012KT P6SM FEW080 BKN250
     FM110000 16010KT P6SM VCSH SCT050 OVC080 PROB30 1103/1108 4SM
      TSRA OVC035CB
     FM110800 18008KT P6SM SCT040 BKN080=

USA.gov is the U.S. government's official web portal to all federal, state and local government web resources and services.